sensor_id;sensor_type;location;lat;lon;timestamp;temperature;humidity
45837;DHT22;31548;51.420;-0.040;2023-07-22T00:00:20;16.10;99.90
45837;DHT22;31548;51.420;-0.040;2023-07-22T00:02:49;16.00;99.90
45837;DHT22;31548;51.420;-0.040;2023-07-22T00:05:17;16.00;99.90
45837;DHT22;31548;51.420;-0.040;2023-07-22T00:07:50;15.90;99.90
45837;DHT22;31548;51.420;-0.040;2023-07-22T00:10:17;15.90;99.90
45837;DHT22;31548;51.420;-0.040;2023-07-22T00:12:45;15.90;99.90
45837;DHT22;31548;51.420;-0.040;2023-07-22T00:15:13;15.80;99.90
45837;DHT22;31548;51.420;-0.040;2023-07-22T00:17:41;15.80;99.90
45837;DHT22;31548;51.420;-0.040;2023-07-22T00:20:09;15.80;99.90
45837;DHT22;31548;51.420;-0.040;2023-07-22T00:22:38;15.80;99.90
45837;DHT22;31548;51.420;-0.040;2023-07-22T00:25:10;15.80;99.90
45837;DHT22;31548;51.420;-0.040;2023-07-22T00:27:39;15.70;99.90
45837;DHT22;31548;51.420;-0.040;2023-07-22T00:30:07;15.70;99.90
45837;DHT22;31548;51.420;-0.040;2023-07-22T00:32:35;15.70;99.90
45837;DHT22;31548;51.420;-0.040;2023-07-22T00:35:07;15.60;99.90
45837;DHT22;31548;51.420;-0.040;2023-07-22T00:37:34;15.60;99.90
45837;DHT22;31548;51.420;-0.040;2023-07-22T00:40:02;15.60;99.90
45837;DHT22;31548;51.420;-0.040;2023-07-22T00:42:39;15.60;99.90
45837;DHT22;31548;51.420;-0.040;2023-07-22T00:45:07;15.60;99.90
45837;DHT22;31548;51.420;-0.040;2023-07-22T00:47:36;15.50;99.90
45837;DHT22;31548;51.420;-0.040;2023-07-22T00:50:05;15.50;99.90
45837;DHT22;31548;51.420;-0.040;2023-07-22T00:52:37;15.50;99.90
45837;DHT22;31548;51.420;-0.040;2023-07-22T00:55:05;15.50;99.90
45837;DHT22;31548;51.420;-0.040;2023-07-22T00:57:34;15.50;99.90
45837;DHT22;31548;51.420;-0.040;2023-07-22T01:00:02;15.50;99.90
45837;DHT22;31548;51.420;-0.040;2023-07-22T01:02:31;15.50;99.90
45837;DHT22;31548;51.420;-0.040;2023-07-22T01:04:59;15.50;99.90
45837;DHT22;31548;51.420;-0.040;2023-07-22T01:07:27;15.50;99.90
45837;DHT22;31548;51.420;-0.040;2023-07-22T01:09:58;15.50;99.90
45837;DHT22;31548;51.420;-0.040;2023-07-22T01:12:26;15.50;99.90
45837;DHT22;31548;51.420;-0.040;2023-07-22T01:14:54;15.40;99.90
45837;DHT22;31548;51.420;-0.040;2023-07-22T01:17:22;15.40;99.90
45837;DHT22;31548;51.420;-0.040;2023-07-22T01:19:50;15.40;99.90
45837;DHT22;31548;51.420;-0.040;2023-07-22T01:22:18;15.50;99.90
45837;DHT22;31548;51.420;-0.040;2023-07-22T01:24:46;15.50;99.90
45837;DHT22;31548;51.420;-0.040;2023-07-22T01:27:14;15.40;99.90
45837;DHT22;31548;51.420;-0.040;2023-07-22T01:29:42;15.40;99.90
45837;DHT22;31548;51.420;-0.040;2023-07-22T01:32:10;15.50;99.90
45837;DHT22;31548;51.420;-0.040;2023-07-22T01:34:38;15.50;99.90
45837;DHT22;31548;51.420;-0.040;2023-07-22T01:37:07;15.40;99.90
45837;DHT22;31548;51.420;-0.040;2023-07-22T01:39:34;15.50;99.90
45837;DHT22;31548;51.420;-0.040;2023-07-22T01:42:02;15.40;99.90
45837;DHT22;31548;51.420;-0.040;2023-07-22T01:44:30;15.50;99.90
45837;DHT22;31548;51.420;-0.040;2023-07-22T01:47:00;15.40;99.90
45837;DHT22;31548;51.420;-0.040;2023-07-22T01:49:28;15.40;99.90
45837;DHT22;31548;51.420;-0.040;2023-07-22T01:51:56;15.40;99.90
45837;DHT22;31548;51.420;-0.040;2023-07-22T01:54:24;15.40;99.90
45837;DHT22;31548;51.420;-0.040;2023-07-22T01:56:51;15.30;99.90
45837;DHT22;31548;51.420;-0.040;2023-07-22T01:59:19;15.30;99.90
45837;DHT22;31548;51.420;-0.040;2023-07-22T02:01:47;15.30;99.90
45837;DHT22;31548;51.420;-0.040;2023-07-22T02:04:15;15.30;99.90
45837;DHT22;31548;51.420;-0.040;2023-07-22T02:06:42;15.20;99.90
45837;DHT22;31548;51.420;-0.040;2023-07-22T02:09:10;15.20;99.90
45837;DHT22;31548;51.420;-0.040;2023-07-22T02:11:41;15.20;99.90
45837;DHT22;31548;51.420;-0.040;2023-07-22T02:14:08;15.30;99.90
45837;DHT22;31548;51.420;-0.040;2023-07-22T02:16:36;15.30;99.90
45837;DHT22;31548;51.420;-0.040;2023-07-22T02:19:04;15.30;99.90
45837;DHT22;31548;51.420;-0.040;2023-07-22T02:21:40;15.30;99.90
45837;DHT22;31548;51.420;-0.040;2023-07-22T02:24:08;15.30;99.90
45837;DHT22;31548;51.420;-0.040;2023-07-22T02:26:36;15.20;99.90
45837;DHT22;31548;51.420;-0.040;2023-07-22T02:29:03;15.30;99.90
45837;DHT22;31548;51.420;-0.040;2023-07-22T02:31:31;15.30;99.90
45837;DHT22;31548;51.420;-0.040;2023-07-22T02:33:58;15.30;99.90
45837;DHT22;31548;51.420;-0.040;2023-07-22T02:36:26;15.30;99.90
45837;DHT22;31548;51.420;-0.040;2023-07-22T02:38:54;15.30;99.90
45837;DHT22;31548;51.420;-0.040;2023-07-22T02:41:21;15.30;99.90
45837;DHT22;31548;51.420;-0.040;2023-07-22T02:43:49;15.30;99.90
45837;DHT22;31548;51.420;-0.040;2023-07-22T02:46:16;15.20;99.90
45837;DHT22;31548;51.420;-0.040;2023-07-22T02:48:45;15.20;99.90
45837;DHT22;31548;51.420;-0.040;2023-07-22T02:51:12;15.10;99.90
45837;DHT22;31548;51.420;-0.040;2023-07-22T02:53:40;15.20;99.90
45837;DHT22;31548;51.420;-0.040;2023-07-22T02:56:08;15.10;99.90
45837;DHT22;31548;51.420;-0.040;2023-07-22T02:58:35;15.10;99.90
45837;DHT22;31548;51.420;-0.040;2023-07-22T03:01:04;15.10;99.90
45837;DHT22;31548;51.420;-0.040;2023-07-22T03:03:32;15.10;99.90
45837;DHT22;31548;51.420;-0.040;2023-07-22T03:06:01;15.10;99.90
45837;DHT22;31548;51.420;-0.040;2023-07-22T03:08:28;15.10;99.90
45837;DHT22;31548;51.420;-0.040;2023-07-22T03:10:56;15.20;99.90
45837;DHT22;31548;51.420;-0.040;2023-07-22T03:13:23;15.10;99.90
45837;DHT22;31548;51.420;-0.040;2023-07-22T03:15:51;15.10;99.90
45837;DHT22;31548;51.420;-0.040;2023-07-22T03:18:18;15.10;99.90
45837;DHT22;31548;51.420;-0.040;2023-07-22T03:20:47;15.10;99.90
45837;DHT22;31548;51.420;-0.040;2023-07-22T03:23:14;15.10;99.90
45837;DHT22;31548;51.420;-0.040;2023-07-22T03:25:42;15.10;99.90
45837;DHT22;31548;51.420;-0.040;2023-07-22T03:28:09;15.00;99.90
45837;DHT22;31548;51.420;-0.040;2023-07-22T03:30:37;15.10;99.90
45837;DHT22;31548;51.420;-0.040;2023-07-22T03:33:04;15.10;99.90
45837;DHT22;31548;51.420;-0.040;2023-07-22T03:35:33;15.00;99.90
45837;DHT22;31548;51.420;-0.040;2023-07-22T03:38:01;15.00;99.90
45837;DHT22;31548;51.420;-0.040;2023-07-22T03:40:28;15.00;99.90
45837;DHT22;31548;51.420;-0.040;2023-07-22T03:42:58;15.10;99.90
45837;DHT22;31548;51.420;-0.040;2023-07-22T03:45:25;15.10;99.90
45837;DHT22;31548;51.420;-0.040;2023-07-22T03:47:56;15.10;99.90
45837;DHT22;31548;51.420;-0.040;2023-07-22T03:50:25;15.10;99.90
45837;DHT22;31548;51.420;-0.040;2023-07-22T03:52:52;15.10;99.90
45837;DHT22;31548;51.420;-0.040;2023-07-22T03:55:20;15.10;99.90
45837;DHT22;31548;51.420;-0.040;2023-07-22T03:57:48;15.10;99.90
45837;DHT22;31548;51.420;-0.040;2023-07-22T04:00:16;15.20;99.90
45837;DHT22;31548;51.420;-0.040;2023-07-22T04:02:43;15.20;99.90
45837;DHT22;31548;51.420;-0.040;2023-07-22T04:05:11;15.20;99.90
45837;DHT22;31548;51.420;-0.040;2023-07-22T04:07:39;15.10;99.90
45837;DHT22;31548;51.420;-0.040;2023-07-22T04:10:07;15.20;99.90
45837;DHT22;31548;51.420;-0.040;2023-07-22T04:12:35;15.20;99.90
45837;DHT22;31548;51.420;-0.040;2023-07-22T04:15:02;15.20;99.90
45837;DHT22;31548;51.420;-0.040;2023-07-22T04:17:31;15.20;99.90
45837;DHT22;31548;51.420;-0.040;2023-07-22T04:19:59;15.20;99.90
45837;DHT22;31548;51.420;-0.040;2023-07-22T04:22:27;15.20;99.90
45837;DHT22;31548;51.420;-0.040;2023-07-22T04:24:58;15.20;99.90
45837;DHT22;31548;51.420;-0.040;2023-07-22T04:27:27;15.20;99.90
45837;DHT22;31548;51.420;-0.040;2023-07-22T04:29:54;15.20;99.90
45837;DHT22;31548;51.420;-0.040;2023-07-22T04:32:22;15.20;99.90
45837;DHT22;31548;51.420;-0.040;2023-07-22T04:34:50;15.20;99.90
45837;DHT22;31548;51.420;-0.040;2023-07-22T04:37:17;15.30;99.90
45837;DHT22;31548;51.420;-0.040;2023-07-22T04:39:48;15.30;99.90
45837;DHT22;31548;51.420;-0.040;2023-07-22T04:42:17;15.30;99.90
45837;DHT22;31548;51.420;-0.040;2023-07-22T04:44:44;15.30;99.90
45837;DHT22;31548;51.420;-0.040;2023-07-22T04:47:12;15.30;99.90
45837;DHT22;31548;51.420;-0.040;2023-07-22T04:49:39;15.30;99.90
45837;DHT22;31548;51.420;-0.040;2023-07-22T04:52:07;15.30;99.90
45837;DHT22;31548;51.420;-0.040;2023-07-22T04:54:35;15.30;99.90
45837;DHT22;31548;51.420;-0.040;2023-07-22T04:57:03;15.30;99.90
45837;DHT22;31548;51.420;-0.040;2023-07-22T04:59:31;15.40;99.90
45837;DHT22;31548;51.420;-0.040;2023-07-22T05:01:58;15.40;99.90
45837;DHT22;31548;51.420;-0.040;2023-07-22T05:04:26;15.40;99.90
45837;DHT22;31548;51.420;-0.040;2023-07-22T05:06:53;15.40;99.90
45837;DHT22;31548;51.420;-0.040;2023-07-22T05:09:21;15.40;99.90
45837;DHT22;31548;51.420;-0.040;2023-07-22T05:11:48;15.40;99.90
45837;DHT22;31548;51.420;-0.040;2023-07-22T05:14:17;15.50;99.90
45837;DHT22;31548;51.420;-0.040;2023-07-22T05:16:44;15.40;99.90
45837;DHT22;31548;51.420;-0.040;2023-07-22T05:19:12;15.50;99.90
45837;DHT22;31548;51.420;-0.040;2023-07-22T05:21:39;15.50;99.90
45837;DHT22;31548;51.420;-0.040;2023-07-22T05:24:07;15.50;99.90
45837;DHT22;31548;51.420;-0.040;2023-07-22T05:26:34;15.50;99.90
45837;DHT22;31548;51.420;-0.040;2023-07-22T05:29:01;15.60;99.90
45837;DHT22;31548;51.420;-0.040;2023-07-22T05:31:29;15.60;99.90
45837;DHT22;31548;51.420;-0.040;2023-07-22T05:33:57;15.60;99.90
45837;DHT22;31548;51.420;-0.040;2023-07-22T05:36:25;15.70;99.90
45837;DHT22;31548;51.420;-0.040;2023-07-22T05:38:53;15.70;99.90
45837;DHT22;31548;51.420;-0.040;2023-07-22T05:41:21;15.70;99.90
45837;DHT22;31548;51.420;-0.040;2023-07-22T05:43:49;15.70;99.90
45837;DHT22;31548;51.420;-0.040;2023-07-22T05:46:16;15.70;99.90
45837;DHT22;31548;51.420;-0.040;2023-07-22T05:48:44;15.80;99.90
45837;DHT22;31548;51.420;-0.040;2023-07-22T05:51:12;15.70;99.90
45837;DHT22;31548;51.420;-0.040;2023-07-22T05:53:39;15.70;99.90
45837;DHT22;31548;51.420;-0.040;2023-07-22T05:56:07;15.80;99.90
45837;DHT22;31548;51.420;-0.040;2023-07-22T05:58:34;15.70;99.90
45837;DHT22;31548;51.420;-0.040;2023-07-22T06:01:02;15.80;99.90
45837;DHT22;31548;51.420;-0.040;2023-07-22T06:03:30;15.70;99.90
45837;DHT22;31548;51.420;-0.040;2023-07-22T06:05:57;15.70;99.90
45837;DHT22;31548;51.420;-0.040;2023-07-22T06:08:25;15.80;99.90
45837;DHT22;31548;51.420;-0.040;2023-07-22T06:10:53;15.80;99.90
45837;DHT22;31548;51.420;-0.040;2023-07-22T06:13:20;15.70;99.90
45837;DHT22;31548;51.420;-0.040;2023-07-22T06:15:48;15.80;99.90
45837;DHT22;31548;51.420;-0.040;2023-07-22T06:18:15;15.80;99.90
45837;DHT22;31548;51.420;-0.040;2023-07-22T06:20:43;15.90;99.90
45837;DHT22;31548;51.420;-0.040;2023-07-22T06:23:10;15.80;99.90
45837;DHT22;31548;51.420;-0.040;2023-07-22T06:25:38;15.80;99.90
45837;DHT22;31548;51.420;-0.040;2023-07-22T06:28:06;15.90;99.90
45837;DHT22;31548;51.420;-0.040;2023-07-22T06:30:34;16.00;99.90
45837;DHT22;31548;51.420;-0.040;2023-07-22T06:33:01;16.10;99.90
45837;DHT22;31548;51.420;-0.040;2023-07-22T06:35:29;16.20;99.90
45837;DHT22;31548;51.420;-0.040;2023-07-22T06:37:56;16.20;99.90
45837;DHT22;31548;51.420;-0.040;2023-07-22T06:40:25;16.30;99.90
45837;DHT22;31548;51.420;-0.040;2023-07-22T06:42:52;16.20;99.90
45837;DHT22;31548;51.420;-0.040;2023-07-22T06:45:19;16.40;99.90
45837;DHT22;31548;51.420;-0.040;2023-07-22T06:47:47;16.30;99.90
45837;DHT22;31548;51.420;-0.040;2023-07-22T06:50:15;16.30;99.90
45837;DHT22;31548;51.420;-0.040;2023-07-22T06:52:42;16.40;99.90
45837;DHT22;31548;51.420;-0.040;2023-07-22T06:55:10;16.40;99.90
45837;DHT22;31548;51.420;-0.040;2023-07-22T06:57:39;16.50;99.90
45837;DHT22;31548;51.420;-0.040;2023-07-22T07:00:07;16.50;99.90
45837;DHT22;31548;51.420;-0.040;2023-07-22T07:02:34;16.50;99.90
45837;DHT22;31548;51.420;-0.040;2023-07-22T07:05:02;16.60;99.90
45837;DHT22;31548;51.420;-0.040;2023-07-22T07:07:30;16.60;99.90
45837;DHT22;31548;51.420;-0.040;2023-07-22T07:09:57;16.60;99.90
45837;DHT22;31548;51.420;-0.040;2023-07-22T07:12:25;16.70;99.90
45837;DHT22;31548;51.420;-0.040;2023-07-22T07:14:53;16.70;99.90
45837;DHT22;31548;51.420;-0.040;2023-07-22T07:17:20;16.70;99.90
45837;DHT22;31548;51.420;-0.040;2023-07-22T07:19:48;16.80;99.90
45837;DHT22;31548;51.420;-0.040;2023-07-22T07:22:15;16.80;99.90
45837;DHT22;31548;51.420;-0.040;2023-07-22T07:24:43;16.90;99.90
45837;DHT22;31548;51.420;-0.040;2023-07-22T07:27:11;16.90;99.90
45837;DHT22;31548;51.420;-0.040;2023-07-22T07:29:38;17.00;99.90
45837;DHT22;31548;51.420;-0.040;2023-07-22T07:32:20;17.00;99.90
45837;DHT22;31548;51.420;-0.040;2023-07-22T07:34:48;17.10;99.90
45837;DHT22;31548;51.420;-0.040;2023-07-22T07:37:16;17.10;99.90
45837;DHT22;31548;51.420;-0.040;2023-07-22T07:39:43;17.20;99.90
45837;DHT22;31548;51.420;-0.040;2023-07-22T07:42:11;17.20;99.90
45837;DHT22;31548;51.420;-0.040;2023-07-22T07:44:38;17.20;99.90
45837;DHT22;31548;51.420;-0.040;2023-07-22T07:47:05;17.30;99.90
45837;DHT22;31548;51.420;-0.040;2023-07-22T07:49:33;17.30;99.90
45837;DHT22;31548;51.420;-0.040;2023-07-22T07:52:01;17.20;99.90
45837;DHT22;31548;51.420;-0.040;2023-07-22T07:54:28;17.40;99.90
45837;DHT22;31548;51.420;-0.040;2023-07-22T07:56:59;17.50;99.90
45837;DHT22;31548;51.420;-0.040;2023-07-22T07:59:26;17.50;99.90
45837;DHT22;31548;51.420;-0.040;2023-07-22T08:01:54;17.60;99.90
45837;DHT22;31548;51.420;-0.040;2023-07-22T08:04:21;17.50;99.90
45837;DHT22;31548;51.420;-0.040;2023-07-22T08:06:48;17.60;99.90
45837;DHT22;31548;51.420;-0.040;2023-07-22T08:09:16;17.80;99.90
45837;DHT22;31548;51.420;-0.040;2023-07-22T08:11:47;17.80;99.90
45837;DHT22;31548;51.420;-0.040;2023-07-22T08:14:14;17.90;99.90
45837;DHT22;31548;51.420;-0.040;2023-07-22T08:16:41;17.90;99.90
45837;DHT22;31548;51.420;-0.040;2023-07-22T08:19:09;18.00;99.90
45837;DHT22;31548;51.420;-0.040;2023-07-22T08:21:36;18.00;99.90
45837;DHT22;31548;51.420;-0.040;2023-07-22T08:24:04;18.00;99.90
45837;DHT22;31548;51.420;-0.040;2023-07-22T08:26:31;18.10;99.90
45837;DHT22;31548;51.420;-0.040;2023-07-22T08:28:59;18.10;99.90
45837;DHT22;31548;51.420;-0.040;2023-07-22T08:31:26;18.20;99.90
45837;DHT22;31548;51.420;-0.040;2023-07-22T08:33:54;18.30;99.90
45837;DHT22;31548;51.420;-0.040;2023-07-22T08:36:21;18.30;99.90
45837;DHT22;31548;51.420;-0.040;2023-07-22T08:38:49;18.50;99.90
45837;DHT22;31548;51.420;-0.040;2023-07-22T08:41:17;18.60;99.90
45837;DHT22;31548;51.420;-0.040;2023-07-22T08:43:48;18.80;99.90
45837;DHT22;31548;51.420;-0.040;2023-07-22T08:46:20;18.90;99.90
45837;DHT22;31548;51.420;-0.040;2023-07-22T08:48:53;19.00;99.90
45837;DHT22;31548;51.420;-0.040;2023-07-22T08:51:21;19.00;99.90
45837;DHT22;31548;51.420;-0.040;2023-07-22T08:53:51;19.10;99.90
45837;DHT22;31548;51.420;-0.040;2023-07-22T08:56:36;19.20;99.90
45837;DHT22;31548;51.420;-0.040;2023-07-22T08:59:05;19.30;99.90
45837;DHT22;31548;51.420;-0.040;2023-07-22T09:01:34;19.40;99.90
45837;DHT22;31548;51.420;-0.040;2023-07-22T09:04:03;19.40;99.90
45837;DHT22;31548;51.420;-0.040;2023-07-22T09:06:33;19.20;99.90
45837;DHT22;31548;51.420;-0.040;2023-07-22T09:09:02;19.00;99.90
45837;DHT22;31548;51.420;-0.040;2023-07-22T09:11:34;18.90;99.90
45837;DHT22;31548;51.420;-0.040;2023-07-22T09:14:02;18.90;99.90
45837;DHT22;31548;51.420;-0.040;2023-07-22T09:16:32;18.80;99.90
45837;DHT22;31548;51.420;-0.040;2023-07-22T09:19:00;18.70;99.90
45837;DHT22;31548;51.420;-0.040;2023-07-22T09:21:30;18.70;99.90
45837;DHT22;31548;51.420;-0.040;2023-07-22T09:23:58;18.60;99.90
45837;DHT22;31548;51.420;-0.040;2023-07-22T09:26:25;18.50;99.90
45837;DHT22;31548;51.420;-0.040;2023-07-22T09:28:57;18.40;99.90
45837;DHT22;31548;51.420;-0.040;2023-07-22T09:31:26;18.20;99.90
45837;DHT22;31548;51.420;-0.040;2023-07-22T09:33:54;18.00;99.90
45837;DHT22;31548;51.420;-0.040;2023-07-22T09:36:21;18.00;99.90
45837;DHT22;31548;51.420;-0.040;2023-07-22T09:39:02;18.00;99.90
45837;DHT22;31548;51.420;-0.040;2023-07-22T09:41:31;18.10;99.90
45837;DHT22;31548;51.420;-0.040;2023-07-22T09:44:03;18.10;99.90
45837;DHT22;31548;51.420;-0.040;2023-07-22T09:46:31;18.20;99.90
45837;DHT22;31548;51.420;-0.040;2023-07-22T09:49:03;18.30;99.90
45837;DHT22;31548;51.420;-0.040;2023-07-22T09:51:36;18.40;99.90
45837;DHT22;31548;51.420;-0.040;2023-07-22T09:54:19;18.50;99.90
45837;DHT22;31548;51.420;-0.040;2023-07-22T09:56:49;18.70;99.90
45837;DHT22;31548;51.420;-0.040;2023-07-22T09:59:18;19.00;99.90
45837;DHT22;31548;51.420;-0.040;2023-07-22T10:01:48;19.10;99.90
45837;DHT22;31548;51.420;-0.040;2023-07-22T10:04:16;19.20;99.90
45837;DHT22;31548;51.420;-0.040;2023-07-22T10:06:45;19.20;99.90
45837;DHT22;31548;51.420;-0.040;2023-07-22T10:09:15;19.20;99.90
45837;DHT22;31548;51.420;-0.040;2023-07-22T10:11:43;19.40;99.90
45837;DHT22;31548;51.420;-0.040;2023-07-22T10:14:11;19.50;99.90
45837;DHT22;31548;51.420;-0.040;2023-07-22T10:16:41;19.70;99.90
45837;DHT22;31548;51.420;-0.040;2023-07-22T10:19:09;19.60;99.90
45837;DHT22;31548;51.420;-0.040;2023-07-22T10:21:38;19.60;99.90
45837;DHT22;31548;51.420;-0.040;2023-07-22T10:24:06;19.60;99.90
45837;DHT22;31548;51.420;-0.040;2023-07-22T10:26:35;19.50;99.90
45837;DHT22;31548;51.420;-0.040;2023-07-22T10:29:06;19.40;99.90
45837;DHT22;31548;51.420;-0.040;2023-07-22T10:31:34;19.20;99.90
45837;DHT22;31548;51.420;-0.040;2023-07-22T10:34:03;19.20;99.90
45837;DHT22;31548;51.420;-0.040;2023-07-22T10:36:30;19.30;99.90
45837;DHT22;31548;51.420;-0.040;2023-07-22T10:38:59;19.20;99.90
45837;DHT22;31548;51.420;-0.040;2023-07-22T10:41:30;19.40;99.90
45837;DHT22;31548;51.420;-0.040;2023-07-22T10:43:58;19.40;99.90
45837;DHT22;31548;51.420;-0.040;2023-07-22T10:46:37;19.60;99.90
45837;DHT22;31548;51.420;-0.040;2023-07-22T10:49:15;19.60;99.90
45837;DHT22;31548;51.420;-0.040;2023-07-22T10:51:51;19.70;99.90
45837;DHT22;31548;51.420;-0.040;2023-07-22T10:54:35;19.60;99.90
45837;DHT22;31548;51.420;-0.040;2023-07-22T10:57:22;19.50;99.90
45837;DHT22;31548;51.420;-0.040;2023-07-22T10:59:50;19.50;99.90
45837;DHT22;31548;51.420;-0.040;2023-07-22T11:02:28;19.50;99.90
45837;DHT22;31548;51.420;-0.040;2023-07-22T11:04:57;19.50;99.90
45837;DHT22;31548;51.420;-0.040;2023-07-22T11:07:34;19.60;99.90
45837;DHT22;31548;51.420;-0.040;2023-07-22T11:10:17;19.70;99.90
45837;DHT22;31548;51.420;-0.040;2023-07-22T11:12:45;19.80;99.90
45837;DHT22;31548;51.420;-0.040;2023-07-22T11:15:17;19.80;99.90
45837;DHT22;31548;51.420;-0.040;2023-07-22T11:17:45;19.80;99.90
45837;DHT22;31548;51.420;-0.040;2023-07-22T11:20:12;20.00;99.90
45837;DHT22;31548;51.420;-0.040;2023-07-22T11:22:40;20.20;99.90
45837;DHT22;31548;51.420;-0.040;2023-07-22T11:25:08;20.10;99.90
45837;DHT22;31548;51.420;-0.040;2023-07-22T11:27:36;20.20;99.90
45837;DHT22;31548;51.420;-0.040;2023-07-22T11:30:04;20.40;99.90
45837;DHT22;31548;51.420;-0.040;2023-07-22T11:32:32;20.40;99.90
45837;DHT22;31548;51.420;-0.040;2023-07-22T11:35:00;20.30;99.90
45837;DHT22;31548;51.420;-0.040;2023-07-22T11:37:28;20.10;99.90
45837;DHT22;31548;51.420;-0.040;2023-07-22T11:40:00;20.00;99.90
45837;DHT22;31548;51.420;-0.040;2023-07-22T11:42:28;19.90;99.90
45837;DHT22;31548;51.420;-0.040;2023-07-22T11:44:56;19.80;99.90
45837;DHT22;31548;51.420;-0.040;2023-07-22T11:47:29;19.60;99.90
45837;DHT22;31548;51.420;-0.040;2023-07-22T11:49:58;19.50;99.90
45837;DHT22;31548;51.420;-0.040;2023-07-22T11:52:26;19.50;99.90
45837;DHT22;31548;51.420;-0.040;2023-07-22T11:54:53;19.50;99.90
45837;DHT22;31548;51.420;-0.040;2023-07-22T11:57:23;19.50;99.90
45837;DHT22;31548;51.420;-0.040;2023-07-22T11:59:53;19.40;99.90
45837;DHT22;31548;51.420;-0.040;2023-07-22T12:05:04;19.10;99.90
45837;DHT22;31548;51.420;-0.040;2023-07-22T12:07:34;18.80;99.90
45837;DHT22;31548;51.420;-0.040;2023-07-22T12:10:04;18.60;99.90
45837;DHT22;31548;51.420;-0.040;2023-07-22T12:15:14;18.10;99.90
45837;DHT22;31548;51.420;-0.040;2023-07-22T12:17:52;17.90;99.90
45837;DHT22;31548;51.420;-0.040;2023-07-22T12:20:24;17.70;99.90
45837;DHT22;31548;51.420;-0.040;2023-07-22T12:22:52;17.40;99.90
45837;DHT22;31548;51.420;-0.040;2023-07-22T12:25:20;17.30;99.90
45837;DHT22;31548;51.420;-0.040;2023-07-22T12:27:47;17.30;99.90
45837;DHT22;31548;51.420;-0.040;2023-07-22T12:30:14;17.20;99.90
45837;DHT22;31548;51.420;-0.040;2023-07-22T12:32:46;17.30;99.90
45837;DHT22;31548;51.420;-0.040;2023-07-22T12:35:15;17.20;99.90
45837;DHT22;31548;51.420;-0.040;2023-07-22T12:37:43;17.00;99.90
45837;DHT22;31548;51.420;-0.040;2023-07-22T12:40:11;17.10;99.90
45837;DHT22;31548;51.420;-0.040;2023-07-22T12:42:39;17.10;99.90
45837;DHT22;31548;51.420;-0.040;2023-07-22T12:45:08;17.10;99.90
45837;DHT22;31548;51.420;-0.040;2023-07-22T12:47:36;17.10;99.90
45837;DHT22;31548;51.420;-0.040;2023-07-22T12:50:06;17.10;99.90
45837;DHT22;31548;51.420;-0.040;2023-07-22T12:52:37;16.90;99.90
45837;DHT22;31548;51.420;-0.040;2023-07-22T12:55:05;16.90;99.90
45837;DHT22;31548;51.420;-0.040;2023-07-22T12:57:32;17.00;99.90
45837;DHT22;31548;51.420;-0.040;2023-07-22T13:00:00;17.10;99.90
45837;DHT22;31548;51.420;-0.040;2023-07-22T13:02:28;16.90;99.90
45837;DHT22;31548;51.420;-0.040;2023-07-22T13:04:55;16.90;99.90
45837;DHT22;31548;51.420;-0.040;2023-07-22T13:07:23;16.80;99.90
45837;DHT22;31548;51.420;-0.040;2023-07-22T13:09:50;16.70;99.90
45837;DHT22;31548;51.420;-0.040;2023-07-22T13:12:20;16.70;99.90
45837;DHT22;31548;51.420;-0.040;2023-07-22T13:14:48;16.70;99.90
45837;DHT22;31548;51.420;-0.040;2023-07-22T13:17:15;16.70;99.90
45837;DHT22;31548;51.420;-0.040;2023-07-22T13:19:43;16.70;99.90
45837;DHT22;31548;51.420;-0.040;2023-07-22T13:22:10;16.80;99.90
45837;DHT22;31548;51.420;-0.040;2023-07-22T13:24:38;16.80;99.90
45837;DHT22;31548;51.420;-0.040;2023-07-22T13:27:06;16.80;99.90
45837;DHT22;31548;51.420;-0.040;2023-07-22T13:29:33;16.80;99.90
45837;DHT22;31548;51.420;-0.040;2023-07-22T13:32:01;16.80;99.90
45837;DHT22;31548;51.420;-0.040;2023-07-22T13:34:28;16.90;99.90
45837;DHT22;31548;51.420;-0.040;2023-07-22T13:36:56;16.90;99.90
45837;DHT22;31548;51.420;-0.040;2023-07-22T13:39:23;16.90;99.90
45837;DHT22;31548;51.420;-0.040;2023-07-22T13:41:51;17.00;99.90
45837;DHT22;31548;51.420;-0.040;2023-07-22T13:44:19;16.90;99.90
45837;DHT22;31548;51.420;-0.040;2023-07-22T13:46:46;17.00;99.90
45837;DHT22;31548;51.420;-0.040;2023-07-22T13:49:15;17.10;99.90
45837;DHT22;31548;51.420;-0.040;2023-07-22T13:51:42;17.00;99.90
45837;DHT22;31548;51.420;-0.040;2023-07-22T13:54:10;16.90;99.90
45837;DHT22;31548;51.420;-0.040;2023-07-22T13:56:37;16.90;99.90
45837;DHT22;31548;51.420;-0.040;2023-07-22T13:59:05;16.90;99.90
45837;DHT22;31548;51.420;-0.040;2023-07-22T14:01:33;17.00;99.90
45837;DHT22;31548;51.420;-0.040;2023-07-22T14:04:00;17.00;99.90
45837;DHT22;31548;51.420;-0.040;2023-07-22T14:06:28;17.10;99.90
45837;DHT22;31548;51.420;-0.040;2023-07-22T14:08:58;17.20;99.90
45837;DHT22;31548;51.420;-0.040;2023-07-22T14:11:28;17.30;99.90
45837;DHT22;31548;51.420;-0.040;2023-07-22T14:13:55;17.10;99.90
45837;DHT22;31548;51.420;-0.040;2023-07-22T14:16:23;17.20;99.90
45837;DHT22;31548;51.420;-0.040;2023-07-22T14:18:50;17.10;99.90
45837;DHT22;31548;51.420;-0.040;2023-07-22T14:21:20;17.20;99.90
45837;DHT22;31548;51.420;-0.040;2023-07-22T14:23:47;17.20;99.90
45837;DHT22;31548;51.420;-0.040;2023-07-22T14:26:15;17.20;99.90
45837;DHT22;31548;51.420;-0.040;2023-07-22T14:28:42;17.10;99.90
45837;DHT22;31548;51.420;-0.040;2023-07-22T14:31:10;17.20;99.90
45837;DHT22;31548;51.420;-0.040;2023-07-22T14:33:37;17.20;99.90
45837;DHT22;31548;51.420;-0.040;2023-07-22T14:36:05;17.30;99.90
45837;DHT22;31548;51.420;-0.040;2023-07-22T14:38:32;17.10;99.90
45837;DHT22;31548;51.420;-0.040;2023-07-22T14:40:59;16.90;99.90
45837;DHT22;31548;51.420;-0.040;2023-07-22T14:43:27;17.00;99.90
45837;DHT22;31548;51.420;-0.040;2023-07-22T14:45:54;17.00;99.90
45837;DHT22;31548;51.420;-0.040;2023-07-22T14:48:22;17.00;99.90
45837;DHT22;31548;51.420;-0.040;2023-07-22T14:50:49;16.80;99.90
45837;DHT22;31548;51.420;-0.040;2023-07-22T14:53:17;16.70;99.90
45837;DHT22;31548;51.420;-0.040;2023-07-22T14:55:44;16.60;99.90
45837;DHT22;31548;51.420;-0.040;2023-07-22T14:58:12;16.60;99.90
45837;DHT22;31548;51.420;-0.040;2023-07-22T15:00:39;16.60;99.90
45837;DHT22;31548;51.420;-0.040;2023-07-22T15:03:07;16.60;99.90
45837;DHT22;31548;51.420;-0.040;2023-07-22T15:05:34;16.50;99.90
45837;DHT22;31548;51.420;-0.040;2023-07-22T15:08:02;16.50;99.90
45837;DHT22;31548;51.420;-0.040;2023-07-22T15:10:30;16.50;99.90
45837;DHT22;31548;51.420;-0.040;2023-07-22T15:12:57;16.40;99.90
45837;DHT22;31548;51.420;-0.040;2023-07-22T15:15:25;16.50;99.90
45837;DHT22;31548;51.420;-0.040;2023-07-22T15:17:52;16.50;99.90
45837;DHT22;31548;51.420;-0.040;2023-07-22T15:20:20;16.50;99.90
45837;DHT22;31548;51.420;-0.040;2023-07-22T15:22:47;16.60;99.90
45837;DHT22;31548;51.420;-0.040;2023-07-22T15:25:14;16.60;99.90
45837;DHT22;31548;51.420;-0.040;2023-07-22T15:27:42;16.60;99.90